sensor_id;sensor_type;location;lat;lon;timestamp;P1;durP1;ratioP1;P2;durP2;ratioP2
70459;SDS011;57920;54.796;9.430;2023-02-21T00:00:09;2.77;;;1.20;;
70459;SDS011;57920;54.796;9.430;2023-02-21T00:02:53;1.80;;;1.30;;
70459;SDS011;57920;54.796;9.430;2023-02-21T00:05:37;5.03;;;1.37;;
70459;SDS011;57920;54.796;9.430;2023-02-21T00:08:21;2.53;;;1.27;;
70459;SDS011;57920;54.796;9.430;2023-02-21T00:11:05;4.40;;;1.60;;
70459;SDS011;57920;54.796;9.430;2023-02-21T00:13:49;2.80;;;1.60;;
70459;SDS011;57920;54.796;9.430;2023-02-21T00:16:33;2.63;;;1.40;;
70459;SDS011;57920;54.796;9.430;2023-02-21T00:19:17;2.67;;;1.50;;
70459;SDS011;57920;54.796;9.430;2023-02-21T00:22:01;3.10;;;1.60;;
70459;SDS011;57920;54.796;9.430;2023-02-21T00:24:46;3.63;;;1.87;;
70459;SDS011;57920;54.796;9.430;2023-02-21T00:27:42;3.83;;;1.47;;
70459;SDS011;57920;54.796;9.430;2023-02-21T00:30:26;3.07;;;1.53;;
70459;SDS011;57920;54.796;9.430;2023-02-21T00:33:10;2.80;;;1.20;;
70459;SDS011;57920;54.796;9.430;2023-02-21T00:35:54;2.93;;;1.50;;
70459;SDS011;57920;54.796;9.430;2023-02-21T00:38:38;2.30;;;1.30;;
70459;SDS011;57920;54.796;9.430;2023-02-21T00:41:22;3.23;;;1.37;;
70459;SDS011;57920;54.796;9.430;2023-02-21T00:44:06;6.23;;;2.13;;
70459;SDS011;57920;54.796;9.430;2023-02-21T00:46:50;3.63;;;2.13;;
70459;SDS011;57920;54.796;9.430;2023-02-21T00:49:34;2.80;;;1.43;;
70459;SDS011;57920;54.796;9.430;2023-02-21T00:52:18;5.43;;;1.67;;
70459;SDS011;57920;54.796;9.430;2023-02-21T00:55:02;3.10;;;1.90;;
70459;SDS011;57920;54.796;9.430;2023-02-21T00:57:47;1.93;;;1.07;;
70459;SDS011;57920;54.796;9.430;2023-02-21T01:00:31;3.80;;;1.40;;
70459;SDS011;57920;54.796;9.430;2023-02-21T01:03:15;3.20;;;1.40;;
70459;SDS011;57920;54.796;9.430;2023-02-21T01:05:59;3.77;;;1.30;;
70459;SDS011;57920;54.796;9.430;2023-02-21T01:08:43;3.67;;;1.53;;
70459;SDS011;57920;54.796;9.430;2023-02-21T01:11:28;3.43;;;1.50;;
70459;SDS011;57920;54.796;9.430;2023-02-21T01:14:13;4.53;;;1.77;;
70459;SDS011;57920;54.796;9.430;2023-02-21T01:16:57;3.80;;;1.73;;
70459;SDS011;57920;54.796;9.430;2023-02-21T01:19:41;3.70;;;1.60;;
70459;SDS011;57920;54.796;9.430;2023-02-21T01:22:25;4.60;;;1.33;;
70459;SDS011;57920;54.796;9.430;2023-02-21T01:25:10;3.77;;;1.57;;
70459;SDS011;57920;54.796;9.430;2023-02-21T01:28:03;2.20;;;1.03;;
70459;SDS011;57920;54.796;9.430;2023-02-21T01:30:47;3.67;;;1.70;;
70459;SDS011;57920;54.796;9.430;2023-02-21T01:33:38;5.17;;;1.70;;
70459;SDS011;57920;54.796;9.430;2023-02-21T01:36:23;3.83;;;1.67;;
70459;SDS011;57920;54.796;9.430;2023-02-21T01:39:08;3.30;;;1.60;;
70459;SDS011;57920;54.796;9.430;2023-02-21T01:41:52;4.67;;;1.70;;
70459;SDS011;57920;54.796;9.430;2023-02-21T01:44:38;3.37;;;1.47;;
70459;SDS011;57920;54.796;9.430;2023-02-21T01:47:23;2.90;;;1.57;;
70459;SDS011;57920;54.796;9.430;2023-02-21T01:50:11;3.67;;;2.00;;
70459;SDS011;57920;54.796;9.430;2023-02-21T01:53:01;4.13;;;1.80;;
70459;SDS011;57920;54.796;9.430;2023-02-21T01:55:49;3.13;;;1.60;;
70459;SDS011;57920;54.796;9.430;2023-02-21T01:58:52;4.87;;;1.90;;
70459;SDS011;57920;54.796;9.430;2023-02-21T02:01:52;3.40;;;1.53;;
70459;SDS011;57920;54.796;9.430;2023-02-21T02:04:41;3.53;;;1.63;;
70459;SDS011;57920;54.796;9.430;2023-02-21T02:07:27;6.60;;;1.90;;
70459;SDS011;57920;54.796;9.430;2023-02-21T02:10:11;4.43;;;1.77;;
70459;SDS011;57920;54.796;9.430;2023-02-21T02:30:57;3.43;;;1.90;;
70459;SDS011;57920;54.796;9.430;2023-02-21T02:36:26;3.20;;;2.03;;
70459;SDS011;57920;54.796;9.430;2023-02-21T02:41:51;3.90;;;2.20;;
70459;SDS011;57920;54.796;9.430;2023-02-21T02:44:36;4.53;;;1.40;;
70459;SDS011;57920;54.796;9.430;2023-02-21T02:47:06;6.27;;;2.23;;
70459;SDS011;57920;54.796;9.430;2023-02-21T02:49:35;4.27;;;1.90;;
70459;SDS011;57920;54.796;9.430;2023-02-21T02:52:06;3.73;;;2.20;;
70459;SDS011;57920;54.796;9.430;2023-02-21T02:54:33;5.50;;;1.70;;
70459;SDS011;57920;54.796;9.430;2023-02-21T03:00:02;3.50;;;1.50;;
70459;SDS011;57920;54.796;9.430;2023-02-21T03:07:35;4.37;;;2.37;;
70459;SDS011;57920;54.796;9.430;2023-02-21T03:15:43;6.60;;;2.03;;
70459;SDS011;57920;54.796;9.430;2023-02-21T03:18:34;4.10;;;1.87;;
70459;SDS011;57920;54.796;9.430;2023-02-21T03:21:16;5.07;;;2.43;;
70459;SDS011;57920;54.796;9.430;2023-02-21T03:23:53;5.03;;;2.27;;
70459;SDS011;57920;54.796;9.430;2023-02-21T03:26:24;6.13;;;2.20;;
70459;SDS011;57920;54.796;9.430;2023-02-21T03:28:52;4.13;;;1.70;;
70459;SDS011;57920;54.796;9.430;2023-02-21T03:31:19;6.77;;;2.10;;
70459;SDS011;57920;54.796;9.430;2023-02-21T03:33:48;5.90;;;2.70;;
70459;SDS011;57920;54.796;9.430;2023-02-21T03:36:14;4.30;;;1.73;;
70459;SDS011;57920;54.796;9.430;2023-02-21T03:38:40;4.63;;;1.90;;
70459;SDS011;57920;54.796;9.430;2023-02-21T03:41:06;3.67;;;1.87;;
70459;SDS011;57920;54.796;9.430;2023-02-21T03:43:33;4.77;;;1.80;;
70459;SDS011;57920;54.796;9.430;2023-02-21T03:45:58;3.77;;;1.80;;
70459;SDS011;57920;54.796;9.430;2023-02-21T03:48:24;7.77;;;2.67;;
70459;SDS011;57920;54.796;9.430;2023-02-21T03:50:49;4.57;;;2.00;;
70459;SDS011;57920;54.796;9.430;2023-02-21T03:53:15;6.13;;;2.50;;
70459;SDS011;57920;54.796;9.430;2023-02-21T03:55:40;3.63;;;1.37;;
70459;SDS011;57920;54.796;9.430;2023-02-21T03:58:06;4.73;;;2.10;;
70459;SDS011;57920;54.796;9.430;2023-02-21T04:00:31;4.77;;;2.60;;
70459;SDS011;57920;54.796;9.430;2023-02-21T04:02:57;5.57;;;2.40;;
70459;SDS011;57920;54.796;9.430;2023-02-21T04:05:23;6.73;;;2.57;;
70459;SDS011;57920;54.796;9.430;2023-02-21T04:07:48;5.47;;;2.50;;
70459;SDS011;57920;54.796;9.430;2023-02-21T04:10:14;4.60;;;2.30;;
70459;SDS011;57920;54.796;9.430;2023-02-21T04:12:39;6.83;;;2.20;;
70459;SDS011;57920;54.796;9.430;2023-02-21T04:15:05;5.77;;;2.63;;
70459;SDS011;57920;54.796;9.430;2023-02-21T04:17:31;4.97;;;2.00;;
70459;SDS011;57920;54.796;9.430;2023-02-21T04:19:56;5.20;;;2.20;;
70459;SDS011;57920;54.796;9.430;2023-02-21T04:22:22;3.50;;;2.30;;
70459;SDS011;57920;54.796;9.430;2023-02-21T04:24:47;4.67;;;2.13;;
70459;SDS011;57920;54.796;9.430;2023-02-21T04:27:13;5.57;;;2.63;;
70459;SDS011;57920;54.796;9.430;2023-02-21T04:29:39;7.20;;;2.90;;
70459;SDS011;57920;54.796;9.430;2023-02-21T04:32:05;3.60;;;2.20;;
70459;SDS011;57920;54.796;9.430;2023-02-21T04:34:30;5.90;;;2.53;;
70459;SDS011;57920;54.796;9.430;2023-02-21T04:36:56;7.60;;;2.73;;
70459;SDS011;57920;54.796;9.430;2023-02-21T04:39:21;5.20;;;1.83;;
70459;SDS011;57920;54.796;9.430;2023-02-21T04:41:47;6.07;;;2.47;;
70459;SDS011;57920;54.796;9.430;2023-02-21T04:44:12;5.57;;;2.47;;
70459;SDS011;57920;54.796;9.430;2023-02-21T04:46:38;3.33;;;2.13;;
70459;SDS011;57920;54.796;9.430;2023-02-21T04:49:04;5.43;;;2.53;;
70459;SDS011;57920;54.796;9.430;2023-02-21T04:51:30;6.63;;;2.30;;
70459;SDS011;57920;54.796;9.430;2023-02-21T04:53:55;5.00;;;2.57;;
70459;SDS011;57920;54.796;9.430;2023-02-21T04:56:22;5.63;;;2.40;;
70459;SDS011;57920;54.796;9.430;2023-02-21T04:58:49;5.97;;;2.83;;
70459;SDS011;57920;54.796;9.430;2023-02-21T05:01:15;7.77;;;2.60;;
70459;SDS011;57920;54.796;9.430;2023-02-21T05:03:42;7.10;;;2.70;;
70459;SDS011;57920;54.796;9.430;2023-02-21T05:06:08;7.80;;;3.00;;
70459;SDS011;57920;54.796;9.430;2023-02-21T05:08:34;5.83;;;2.67;;
70459;SDS011;57920;54.796;9.430;2023-02-21T05:11:00;4.93;;;2.90;;
70459;SDS011;57920;54.796;9.430;2023-02-21T05:13:26;6.90;;;2.57;;
70459;SDS011;57920;54.796;9.430;2023-02-21T05:15:51;5.53;;;2.40;;
70459;SDS011;57920;54.796;9.430;2023-02-21T05:18:17;4.70;;;2.40;;
70459;SDS011;57920;54.796;9.430;2023-02-21T05:20:46;5.47;;;2.70;;
70459;SDS011;57920;54.796;9.430;2023-02-21T05:23:13;6.60;;;2.60;;
70459;SDS011;57920;54.796;9.430;2023-02-21T05:25:41;4.47;;;2.67;;
70459;SDS011;57920;54.796;9.430;2023-02-21T05:28:06;6.37;;;2.60;;
70459;SDS011;57920;54.796;9.430;2023-02-21T05:30:32;6.67;;;2.80;;
70459;SDS011;57920;54.796;9.430;2023-02-21T05:32:58;4.87;;;2.50;;
70459;SDS011;57920;54.796;9.430;2023-02-21T05:35:23;6.37;;;2.47;;
70459;SDS011;57920;54.796;9.430;2023-02-21T05:37:49;8.03;;;2.80;;
70459;SDS011;57920;54.796;9.430;2023-02-21T05:40:17;6.77;;;2.77;;
70459;SDS011;57920;54.796;9.430;2023-02-21T05:42:43;5.80;;;2.73;;
70459;SDS011;57920;54.796;9.430;2023-02-21T05:45:08;5.63;;;2.57;;
70459;SDS011;57920;54.796;9.430;2023-02-21T05:47:35;6.13;;;2.70;;
70459;SDS011;57920;54.796;9.430;2023-02-21T05:50:00;6.20;;;2.03;;
70459;SDS011;57920;54.796;9.430;2023-02-21T05:52:26;5.10;;;2.73;;
70459;SDS011;57920;54.796;9.430;2023-02-21T05:54:52;3.43;;;2.00;;
70459;SDS011;57920;54.796;9.430;2023-02-21T05:57:21;7.20;;;2.70;;
70459;SDS011;57920;54.796;9.430;2023-02-21T05:59:47;6.43;;;2.20;;
70459;SDS011;57920;54.796;9.430;2023-02-21T06:02:13;5.60;;;2.40;;
70459;SDS011;57920;54.796;9.430;2023-02-21T06:04:39;5.47;;;2.67;;
70459;SDS011;57920;54.796;9.430;2023-02-21T06:07:04;4.10;;;1.90;;
70459;SDS011;57920;54.796;9.430;2023-02-21T06:09:30;6.17;;;2.67;;
70459;SDS011;57920;54.796;9.430;2023-02-21T06:11:55;5.33;;;2.57;;
70459;SDS011;57920;54.796;9.430;2023-02-21T06:14:21;6.57;;;2.87;;
70459;SDS011;57920;54.796;9.430;2023-02-21T06:16:47;5.73;;;2.60;;
70459;SDS011;57920;54.796;9.430;2023-02-21T06:19:13;5.57;;;2.60;;
70459;SDS011;57920;54.796;9.430;2023-02-21T06:21:43;7.87;;;3.20;;
70459;SDS011;57920;54.796;9.430;2023-02-21T06:24:10;4.73;;;2.67;;
70459;SDS011;57920;54.796;9.430;2023-02-21T06:26:36;7.97;;;2.97;;
70459;SDS011;57920;54.796;9.430;2023-02-21T06:31:56;5.10;;;2.20;;
70459;SDS011;57920;54.796;9.430;2023-02-21T06:34:25;5.97;;;2.53;;
70459;SDS011;57920;54.796;9.430;2023-02-21T06:36:52;5.03;;;2.53;;
70459;SDS011;57920;54.796;9.430;2023-02-21T06:39:19;6.50;;;2.67;;
70459;SDS011;57920;54.796;9.430;2023-02-21T06:41:45;5.77;;;2.83;;
70459;SDS011;57920;54.796;9.430;2023-02-21T06:44:10;5.30;;;2.20;;
70459;SDS011;57920;54.796;9.430;2023-02-21T06:46:36;9.60;;;3.20;;
70459;SDS011;57920;54.796;9.430;2023-02-21T06:49:03;6.17;;;2.97;;
70459;SDS011;57920;54.796;9.430;2023-02-21T06:51:38;8.87;;;3.23;;
70459;SDS011;57920;54.796;9.430;2023-02-21T06:54:05;4.53;;;2.60;;
70459;SDS011;57920;54.796;9.430;2023-02-21T06:56:32;8.47;;;2.63;;
70459;SDS011;57920;54.796;9.430;2023-02-21T06:58:57;13.70;;;4.47;;
70459;SDS011;57920;54.796;9.430;2023-02-21T07:01:24;32.50;;;6.90;;
70459;SDS011;57920;54.796;9.430;2023-02-21T07:03:51;22.30;;;5.00;;
70459;SDS011;57920;54.796;9.430;2023-02-21T07:06:18;13.53;;;3.87;;
70459;SDS011;57920;54.796;9.430;2023-02-21T07:08:43;13.80;;;4.07;;
70459;SDS011;57920;54.796;9.430;2023-02-21T07:11:09;12.10;;;4.07;;
70459;SDS011;57920;54.796;9.430;2023-02-21T07:13:35;14.90;;;3.90;;
70459;SDS011;57920;54.796;9.430;2023-02-21T07:16:00;11.97;;;3.97;;
70459;SDS011;57920;54.796;9.430;2023-02-21T07:18:26;11.53;;;3.73;;
70459;SDS011;57920;54.796;9.430;2023-02-21T07:20:52;8.10;;;3.30;;
70459;SDS011;57920;54.796;9.430;2023-02-21T07:23:17;7.90;;;3.83;;
70459;SDS011;57920;54.796;9.430;2023-02-21T07:25:52;8.80;;;3.93;;
70459;SDS011;57920;54.796;9.430;2023-02-21T07:28:34;15.07;;;4.73;;
70459;SDS011;57920;54.796;9.430;2023-02-21T07:30:59;9.13;;;2.93;;
70459;SDS011;57920;54.796;9.430;2023-02-21T07:33:25;22.37;;;6.17;;
70459;SDS011;57920;54.796;9.430;2023-02-21T07:35:51;23.07;;;5.27;;
70459;SDS011;57920;54.796;9.430;2023-02-21T07:38:20;17.90;;;5.57;;
70459;SDS011;57920;54.796;9.430;2023-02-21T07:40:46;14.73;;;5.27;;
70459;SDS011;57920;54.796;9.430;2023-02-21T07:43:11;16.80;;;5.50;;
70459;SDS011;57920;54.796;9.430;2023-02-21T07:45:37;13.60;;;4.33;;
70459;SDS011;57920;54.796;9.430;2023-02-21T07:48:02;14.77;;;4.43;;
70459;SDS011;57920;54.796;9.430;2023-02-21T07:50:28;19.27;;;5.07;;
70459;SDS011;57920;54.796;9.430;2023-02-21T07:52:53;18.60;;;4.10;;
70459;SDS011;57920;54.796;9.430;2023-02-21T07:55:20;24.43;;;11.17;;
70459;SDS011;57920;54.796;9.430;2023-02-21T07:57:51;48.00;;;22.40;;
70459;SDS011;57920;54.796;9.430;2023-02-21T08:00:17;26.87;;;13.17;;
70459;SDS011;57920;54.796;9.430;2023-02-21T08:02:46;29.43;;;11.53;;
70459;SDS011;57920;54.796;9.430;2023-02-21T08:05:15;34.13;;;15.23;;
70459;SDS011;57920;54.796;9.430;2023-02-21T08:07:41;99.23;;;24.70;;
70459;SDS011;57920;54.796;9.430;2023-02-21T08:10:07;101.97;;;22.87;;
70459;SDS011;57920;54.796;9.430;2023-02-21T08:12:33;93.80;;;19.20;;
70459;SDS011;57920;54.796;9.430;2023-02-21T08:14:58;71.03;;;19.03;;
70459;SDS011;57920;54.796;9.430;2023-02-21T08:17:24;126.80;;;24.93;;
70459;SDS011;57920;54.796;9.430;2023-02-21T08:19:50;81.27;;;19.37;;
70459;SDS011;57920;54.796;9.430;2023-02-21T08:22:16;190.10;;;35.03;;
70459;SDS011;57920;54.796;9.430;2023-02-21T08:24:41;188.17;;;31.30;;
70459;SDS011;57920;54.796;9.430;2023-02-21T08:27:10;167.63;;;31.20;;
70459;SDS011;57920;54.796;9.430;2023-02-21T08:29:36;262.30;;;43.60;;
70459;SDS011;57920;54.796;9.430;2023-02-21T08:32:01;160.67;;;31.23;;
70459;SDS011;57920;54.796;9.430;2023-02-21T08:34:27;128.30;;;25.93;;
70459;SDS011;57920;54.796;9.430;2023-02-21T08:36:54;135.13;;;28.53;;
70459;SDS011;57920;54.796;9.430;2023-02-21T08:39:19;141.80;;;25.73;;
70459;SDS011;57920;54.796;9.430;2023-02-21T08:41:45;120.70;;;23.13;;
70459;SDS011;57920;54.796;9.430;2023-02-21T08:44:13;114.23;;;22.87;;
70459;SDS011;57920;54.796;9.430;2023-02-21T08:46:45;66.13;;;18.97;;
70459;SDS011;57920;54.796;9.430;2023-02-21T08:49:11;72.37;;;18.80;;
70459;SDS011;57920;54.796;9.430;2023-02-21T08:51:36;69.80;;;17.27;;
70459;SDS011;57920;54.796;9.430;2023-02-21T08:54:02;62.77;;;16.57;;
70459;SDS011;57920;54.796;9.430;2023-02-21T08:56:28;69.83;;;16.67;;
70459;SDS011;57920;54.796;9.430;2023-02-21T08:58:54;55.77;;;16.03;;
70459;SDS011;57920;54.796;9.430;2023-02-21T09:01:20;76.63;;;24.60;;
70459;SDS011;57920;54.796;9.430;2023-02-21T09:03:47;125.70;;;42.73;;
70459;SDS011;57920;54.796;9.430;2023-02-21T09:06:14;115.87;;;41.20;;
70459;SDS011;57920;54.796;9.430;2023-02-21T09:08:41;70.67;;;26.00;;
70459;SDS011;57920;54.796;9.430;2023-02-21T09:11:06;160.27;;;41.97;;
70459;SDS011;57920;54.796;9.430;2023-02-21T09:13:32;158.80;;;53.50;;
70459;SDS011;57920;54.796;9.430;2023-02-21T09:15:59;111.83;;;39.27;;
70459;SDS011;57920;54.796;9.430;2023-02-21T09:18:26;98.63;;;35.27;;
70459;SDS011;57920;54.796;9.430;2023-02-21T09:20:53;89.77;;;34.03;;
70459;SDS011;57920;54.796;9.430;2023-02-21T09:23:21;112.47;;;35.23;;
70459;SDS011;57920;54.796;9.430;2023-02-21T09:25:51;90.50;;;31.83;;
70459;SDS011;57920;54.796;9.430;2023-02-21T09:28:32;87.53;;;29.53;;
70459;SDS011;57920;54.796;9.430;2023-02-21T09:30:57;84.93;;;26.27;;
70459;SDS011;57920;54.796;9.430;2023-02-21T09:33:23;73.20;;;25.83;;
70459;SDS011;57920;54.796;9.430;2023-02-21T09:35:49;67.70;;;24.90;;
70459;SDS011;57920;54.796;9.430;2023-02-21T09:38:14;75.70;;;25.03;;
70459;SDS011;57920;54.796;9.430;2023-02-21T09:40:44;63.60;;;25.67;;
70459;SDS011;57920;54.796;9.430;2023-02-21T09:43:18;60.90;;;23.53;;
70459;SDS011;57920;54.796;9.430;2023-02-21T09:45:50;55.90;;;24.80;;
70459;SDS011;57920;54.796;9.430;2023-02-21T09:48:19;57.77;;;23.23;;
70459;SDS011;57920;54.796;9.430;2023-02-21T09:50:48;49.33;;;22.10;;
70459;SDS011;57920;54.796;9.430;2023-02-21T09:53:21;55.47;;;21.30;;
70459;SDS011;57920;54.796;9.430;2023-02-21T09:55:53;52.13;;;18.97;;
70459;SDS011;57920;54.796;9.430;2023-02-21T09:58:22;46.50;;;18.03;;
70459;SDS011;57920;54.796;9.430;2023-02-21T10:00:48;41.37;;;18.37;;
70459;SDS011;57920;54.796;9.430;2023-02-21T10:06:11;30.17;;;12.67;;
70459;SDS011;57920;54.796;9.430;2023-02-21T10:08:50;36.37;;;15.33;;
70459;SDS011;57920;54.796;9.430;2023-02-21T10:14:22;50.27;;;17.33;;
70459;SDS011;57920;54.796;9.430;2023-02-21T10:19:50;38.20;;;13.90;;
70459;SDS011;57920;54.796;9.430;2023-02-21T10:24:44;43.00;;;15.77;;
70459;SDS011;57920;54.796;9.430;2023-02-21T10:27:18;37.80;;;14.77;;
70459;SDS011;57920;54.796;9.430;2023-02-21T10:29:49;39.27;;;13.90;;
70459;SDS011;57920;54.796;9.430;2023-02-21T10:32:20;37.07;;;14.57;;
70459;SDS011;57920;54.796;9.430;2023-02-21T10:34:47;40.17;;;14.43;;
70459;SDS011;57920;54.796;9.430;2023-02-21T10:40:27;62.40;;;19.33;;
70459;SDS011;57920;54.796;9.430;2023-02-21T10:46:10;43.83;;;13.80;;
70459;SDS011;57920;54.796;9.430;2023-02-21T10:48:40;39.83;;;13.37;;
70459;SDS011;57920;54.796;9.430;2023-02-21T10:51:09;60.47;;;16.10;;
70459;SDS011;57920;54.796;9.430;2023-02-21T10:53:38;49.47;;;15.47;;
70459;SDS011;57920;54.796;9.430;2023-02-21T10:56:05;41.67;;;13.23;;
70459;SDS011;57920;54.796;9.430;2023-02-21T10:58:32;39.80;;;12.97;;
70459;SDS011;57920;54.796;9.430;2023-02-21T11:01:10;37.17;;;10.53;;
70459;SDS011;57920;54.796;9.430;2023-02-21T11:03:45;42.33;;;12.17;;
70459;SDS011;57920;54.796;9.430;2023-02-21T11:06:43;27.73;;;9.20;;
70459;SDS011;57920;54.796;9.430;2023-02-21T11:12:23;24.63;;;8.80;;
70459;SDS011;57920;54.796;9.430;2023-02-21T11:22:11;19.57;;;7.30;;
70459;SDS011;57920;54.796;9.430;2023-02-21T11:27:43;24.00;;;6.80;;
70459;SDS011;57920;54.796;9.430;2023-02-21T11:30:10;26.40;;;8.30;;
70459;SDS011;57920;54.796;9.430;2023-02-21T11:32:40;22.73;;;8.00;;
70459;SDS011;57920;54.796;9.430;2023-02-21T11:40:28;17.30;;;6.47;;
70459;SDS011;57920;54.796;9.430;2023-02-21T11:48:28;13.10;;;6.03;;
70459;SDS011;57920;54.796;9.430;2023-02-21T11:51:12;10.30;;;5.37;;
70459;SDS011;57920;54.796;9.430;2023-02-21T11:53:56;8.30;;;3.53;;
70459;SDS011;57920;54.796;9.430;2023-02-21T12:06:59;9.07;;;4.40;;
70459;SDS011;57920;54.796;9.430;2023-02-21T12:09:40;9.83;;;4.20;;
70459;SDS011;57920;54.796;9.430;2023-02-21T12:15:20;9.17;;;3.57;;
70459;SDS011;57920;54.796;9.430;2023-02-21T12:17:59;12.33;;;3.73;;
70459;SDS011;57920;54.796;9.430;2023-02-21T12:21:12;7.63;;;4.10;;
70459;SDS011;57920;54.796;9.430;2023-02-21T12:29:37;11.73;;;4.60;;
70459;SDS011;57920;54.796;9.430;2023-02-21T12:34:37;12.60;;;4.40;;
70459;SDS011;57920;54.796;9.430;2023-02-21T12:37:30;8.00;;;3.97;;
70459;SDS011;57920;54.796;9.430;2023-02-21T12:40:28;16.63;;;5.30;;
70459;SDS011;57920;54.796;9.430;2023-02-21T12:43:28;27.07;;;6.37;;
70459;SDS011;57920;54.796;9.430;2023-02-21T12:46:21;22.77;;;6.37;;
70459;SDS011;57920;54.796;9.430;2023-02-21T12:49:04;27.20;;;8.20;;
70459;SDS011;57920;54.796;9.430;2023-02-21T12:52:12;22.40;;;6.47;;
70459;SDS011;57920;54.796;9.430;2023-02-21T12:54:41;33.70;;;8.07;;
70459;SDS011;57920;54.796;9.430;2023-02-21T12:57:18;30.33;;;8.80;;
70459;SDS011;57920;54.796;9.430;2023-02-21T13:05:35;15.57;;;5.93;;
70459;SDS011;57920;54.796;9.430;2023-02-21T13:13:31;15.50;;;5.70;;
70459;SDS011;57920;54.796;9.430;2023-02-21T13:16:01;16.00;;;5.90;;
70459;SDS011;57920;54.796;9.430;2023-02-21T13:18:41;16.87;;;5.57;;
70459;SDS011;57920;54.796;9.430;2023-02-21T13:23:49;24.83;;;6.50;;
70459;SDS011;57920;54.796;9.430;2023-02-21T13:29:19;18.67;;;5.17;;
70459;SDS011;57920;54.796;9.430;2023-02-21T13:32:17;26.87;;;10.63;;
70459;SDS011;57920;54.796;9.430;2023-02-21T13:34:45;53.27;;;29.00;;
70459;SDS011;57920;54.796;9.430;2023-02-21T13:37:18;68.93;;;33.70;;
70459;SDS011;57920;54.796;9.430;2023-02-21T13:39:50;74.00;;;33.50;;
70459;SDS011;57920;54.796;9.430;2023-02-21T13:42:36;70.70;;;33.63;;
70459;SDS011;57920;54.796;9.430;2023-02-21T13:45:16;73.53;;;32.73;;
70459;SDS011;57920;54.796;9.430;2023-02-21T13:48:16;68.63;;;31.93;;
70459;SDS011;57920;54.796;9.430;2023-02-21T13:50:48;55.07;;;26.97;;
70459;SDS011;57920;54.796;9.430;2023-02-21T13:58:27;134.60;;;62.93;;
70459;SDS011;57920;54.796;9.430;2023-02-21T14:00:56;149.60;;;55.97;;
70459;SDS011;57920;54.796;9.430;2023-02-21T14:03:37;161.30;;;57.80;;
70459;SDS011;57920;54.796;9.430;2023-02-21T14:08:41;126.17;;;51.47;;
70459;SDS011;57920;54.796;9.430;2023-02-21T14:11:18;110.63;;;49.70;;
70459;SDS011;57920;54.796;9.430;2023-02-21T14:13:51;118.93;;;43.97;;
70459;SDS011;57920;54.796;9.430;2023-02-21T14:16:23;81.53;;;35.03;;
70459;SDS011;57920;54.796;9.430;2023-02-21T14:24:09;82.20;;;37.70;;
70459;SDS011;57920;54.796;9.430;2023-02-21T14:37:12;50.63;;;25.77;;
70459;SDS011;57920;54.796;9.430;2023-02-21T14:40:00;67.40;;;26.63;;
70459;SDS011;57920;54.796;9.430;2023-02-21T14:45:31;75.03;;;28.47;;
70459;SDS011;57920;54.796;9.430;2023-02-21T14:56:44;65.70;;;27.30;;
70459;SDS011;57920;54.796;9.430;2023-02-21T14:59:31;53.27;;;23.73;;
70459;SDS011;57920;54.796;9.430;2023-02-21T15:02:24;58.67;;;26.03;;
70459;SDS011;57920;54.796;9.430;2023-02-21T15:05:09;45.93;;;20.00;;
70459;SDS011;57920;54.796;9.430;2023-02-21T15:10:22;48.40;;;21.93;;
70459;SDS011;57920;54.796;9.430;2023-02-21T15:20:33;43.43;;;18.97;;
70459;SDS011;57920;54.796;9.430;2023-02-21T15:23:09;40.20;;;17.90;;
70459;SDS011;57920;54.796;9.430;2023-02-21T15:25:38;41.07;;;19.50;;
70459;SDS011;57920;54.796;9.430;2023-02-21T15:28:06;38.10;;;19.07;;
70459;SDS011;57920;54.796;9.430;2023-02-21T15:30:52;35.13;;;14.77;;
70459;SDS011;57920;54.796;9.430;2023-02-21T15:33:29;25.20;;;13.77;;
70459;SDS011;57920;54.796;9.430;2023-02-21T15:36:05;34.03;;;17.37;;
70459;SDS011;57920;54.796;9.430;2023-02-21T15:38:51;33.00;;;13.53;;
70459;SDS011;57920;54.796;9.430;2023-02-21T15:41:32;27.73;;;15.43;;
70459;SDS011;57920;54.796;9.430;2023-02-21T15:44:17;32.63;;;17.23;;
70459;SDS011;57920;54.796;9.430;2023-02-21T15:46:46;29.47;;;13.97;;
70459;SDS011;57920;54.796;9.430;2023-02-21T15:49:26;31.40;;;14.03;;
70459;SDS011;57920;54.796;9.430;2023-02-21T15:52:03;25.53;;;13.60;;
70459;SDS011;57920;54.796;9.430;2023-02-21T15:54:34;26.90;;;13.43;;
70459;SDS011;57920;54.796;9.430;2023-02-21T16:05:53;22.73;;;11.07;;
70459;SDS011;57920;54.796;9.430;2023-02-21T16:08:32;20.33;;;10.80;;
70459;SDS011;57920;54.796;9.430;2023-02-21T16:11:01;20.00;;;10.73;;
70459;SDS011;57920;54.796;9.430;2023-02-21T16:13:33;26.73;;;10.83;;
70459;SDS011;57920;54.796;9.430;2023-02-21T16:16:03;18.20;;;9.57;;
70459;SDS011;57920;54.796;9.430;2023-02-21T16:18:29;18.77;;;9.83;;
70459;SDS011;57920;54.796;9.430;2023-02-21T16:20:58;23.17;;;10.73;;
70459;SDS011;57920;54.796;9.430;2023-02-21T16:26:00;19.20;;;9.47;;
70459;SDS011;57920;54.796;9.430;2023-02-21T16:31:26;15.20;;;7.60;;
70459;SDS011;57920;54.796;9.430;2023-02-21T16:33:53;19.47;;;8.83;;
70459;SDS011;57920;54.796;9.430;2023-02-21T16:36:24;23.33;;;9.53;;
70459;SDS011;57920;54.796;9.430;2023-02-21T16:38:51;15.90;;;7.17;;
70459;SDS011;57920;54.796;9.430;2023-02-21T16:41:18;16.83;;;7.60;;
70459;SDS011;57920;54.796;9.430;2023-02-21T16:43:43;15.77;;;7.87;;
70459;SDS011;57920;54.796;9.430;2023-02-21T16:46:10;13.60;;;6.63;;
70459;SDS011;57920;54.796;9.430;2023-02-21T16:48:37;16.20;;;6.90;;
70459;SDS011;57920;54.796;9.430;2023-02-21T16:51:04;17.07;;;8.40;;
70459;SDS011;57920;54.796;9.430;2023-02-21T16:53:37;17.70;;;7.63;;
70459;SDS011;57920;54.796;9.430;2023-02-21T16:56:03;16.67;;;6.70;;
70459;SDS011;57920;54.796;9.430;2023-02-21T17:01:52;9.60;;;4.93;;
70459;SDS011;57920;54.796;9.430;2023-02-21T17:04:22;11.87;;;6.00;;
70459;SDS011;57920;54.796;9.430;2023-02-21T17:06:52;7.80;;;5.10;;
70459;SDS011;57920;54.796;9.430;2023-02-21T17:09:22;10.43;;;5.50;;
70459;SDS011;57920;54.796;9.430;2023-02-21T17:11:50;11.63;;;5.07;;
70459;SDS011;57920;54.796;9.430;2023-02-21T17:14:16;10.07;;;5.97;;
70459;SDS011;57920;54.796;9.430;2023-02-21T17:16:43;12.47;;;5.53;;
70459;SDS011;57920;54.796;9.430;2023-02-21T17:19:10;9.73;;;5.40;;
70459;SDS011;57920;54.796;9.430;2023-02-21T17:21:36;16.57;;;6.67;;
70459;SDS011;57920;54.796;9.430;2023-02-21T17:24:02;11.93;;;6.23;;
70459;SDS011;57920;54.796;9.430;2023-02-21T17:26:28;14.70;;;5.87;;
70459;SDS011;57920;54.796;9.430;2023-02-21T17:28:53;14.23;;;6.30;;
70459;SDS011;57920;54.796;9.430;2023-02-21T17:31:19;10.37;;;4.57;;
70459;SDS011;57920;54.796;9.430;2023-02-21T17:33:44;13.00;;;5.97;;
70459;SDS011;57920;54.796;9.430;2023-02-21T17:36:20;9.47;;;5.43;;
70459;SDS011;57920;54.796;9.430;2023-02-21T17:38:47;10.73;;;4.97;;
70459;SDS011;57920;54.796;9.430;2023-02-21T17:41:13;9.00;;;4.77;;
70459;SDS011;57920;54.796;9.430;2023-02-21T17:43:43;9.43;;;4.87;;
70459;SDS011;57920;54.796;9.430;2023-02-21T17:46:09;11.83;;;5.47;;
70459;SDS011;57920;54.796;9.430;2023-02-21T17:48:36;5.67;;;3.50;;
70459;SDS011;57920;54.796;9.430;2023-02-21T17:51:01;8.13;;;3.90;;
70459;SDS011;57920;54.796;9.430;2023-02-21T17:53:27;9.77;;;4.23;;
70459;SDS011;57920;54.796;9.430;2023-02-21T17:55:53;5.50;;;3.27;;
70459;SDS011;57920;54.796;9.430;2023-02-21T18:01:42;6.37;;;3.60;;
70459;SDS011;57920;54.796;9.430;2023-02-21T18:04:08;8.47;;;3.50;;
70459;SDS011;57920;54.796;9.430;2023-02-21T18:06:35;7.67;;;3.67;;
70459;SDS011;57920;54.796;9.430;2023-02-21T18:09:00;12.37;;;4.37;;
70459;SDS011;57920;54.796;9.430;2023-02-21T18:11:28;10.33;;;4.97;;